Time;durP1;ratioP1;P1;durP2;ratioP2;P2;SDS_P1;SDS_P2;PMS_P1;PMS_P2;Temp;Humidity;BMP_temperature;BMP_pressure;BME280_temperature;BME280_humidity;BME280_pressure;Samples;Min_cycle;Max_cycle;Signal;HPM_P1;HPM_P2
2023/01/15 00:00:42;;;;;;;12.98;1.67;;;;;;;;;;5076738;28;20374;-71
2023/01/15 00:03:08;;;;;;;6.78;1.30;;;;;;;;;;5083270;28;20541;-72
2023/01/15 00:05:37;;;;;;;9.90;1.65;;;;;;;;;;5083572;28;20111;-73
2023/01/15 00:08:03;;;;;;;5.18;1.42;;;;;;;;;;5074577;28;20112;-72
2023/01/15 00:10:29;;;;;;;6.07;1.08;;;;;;;;;;5074704;28;20040;-73
2023/01/15 00:12:55;;;;;;;6.57;1.45;;;;;;;;;;5074523;28;20024;-74
2023/01/15 00:15:20;;;;;;;6.25;1.17;;;;;;;;;;5074288;28;20028;-73
2023/01/15 00:17:46;;;;;;;5.70;1.50;;;;;;;;;;5074396;28;20024;-73
2023/01/15 00:20:13;;;;;;;15.15;1.83;;;;;;;;;;5074403;28;20072;-73
2023/01/15 00:22:39;;;;;;;8.65;1.40;;;;;;;;;;5074330;28;20125;-72
2023/01/15 00:27:50;;;;;;;12.20;1.77;;;;;;;;;;5074546;28;20063;-73
2023/01/15 00:30:16;;;;;;;11.50;1.55;;;;;;;;;;5074417;28;20106;-74
2023/01/15 00:32:43;;;;;;;7.00;1.38;;;;;;;;;;5074110;28;20366;-73
2023/01/15 00:35:11;;;;;;;3.85;1.10;;;;;;;;;;5074089;28;20028;-73
2023/01/15 00:37:37;;;;;;;8.05;2.20;;;;;;;;;;5073738;28;20029;-74
2023/01/15 00:40:03;;;;;;;7.85;1.35;;;;;;;;;;5074211;28;20025;-74
2023/01/15 00:42:29;;;;;;;8.57;1.50;;;;;;;;;;5074132;28;20447;-73
2023/01/15 00:44:55;;;;;;;9.75;1.50;;;;;;;;;;5073985;28;20039;-72
2023/01/15 00:47:21;;;;;;;13.07;1.30;;;;;;;;;;5073562;28;20028;-72
2023/01/15 00:49:48;;;;;;;11.68;1.50;;;;;;;;;;5074015;28;20501;-72
2023/01/15 00:52:14;;;;;;;8.25;1.33;;;;;;;;;;5073983;28;20469;-72
2023/01/15 00:54:40;;;;;;;11.85;1.95;;;;;;;;;;5073910;28;20074;-72
2023/01/15 00:57:06;;;;;;;11.02;1.30;;;;;;;;;;5072774;28;20021;-72
2023/01/15 00:59:32;;;;;;;6.53;1.30;;;;;;;;;;5073714;28;20025;-72
2023/01/15 01:01:58;;;;;;;14.77;1.73;;;;;;;;;;5069372;28;20035;-71
2023/01/15 01:04:24;;;;;;;14.38;2.22;;;;;;;;;;5073137;28;20020;-71
2023/01/15 01:06:50;;;;;;;6.00;1.50;;;;;;;;;;5071783;28;20024;-73
2023/01/15 01:09:16;;;;;;;11.80;1.38;;;;;;;;;;5073575;28;20170;-74
2023/01/15 01:11:42;;;;;;;7.22;1.10;;;;;;;;;;5073539;28;20480;-73
2023/01/15 01:14:09;;;;;;;13.18;2.15;;;;;;;;;;5073314;28;20458;-72
2023/01/15 01:16:39;;;;;;;11.25;1.52;;;;;;;;;;5072697;28;20537;-72
2023/01/15 01:19:24;;;;;;;8.00;1.50;;;;;;;;;;5073283;28;20031;-71
2023/01/15 01:21:50;;;;;;;13.32;1.50;;;;;;;;;;5073348;28;20066;-73
2023/01/15 01:24:20;;;;;;;9.63;1.45;;;;;;;;;;5073324;28;20390;-74
2023/01/15 01:26:47;;;;;;;11.07;1.33;;;;;;;;;;5072588;28;20032;-73
2023/01/15 01:29:14;;;;;;;11.18;1.38;;;;;;;;;;5073105;28;20028;-73
2023/01/15 01:31:40;;;;;;;5.93;1.02;;;;;;;;;;5073179;28;20038;-73
2023/01/15 01:34:06;;;;;;;9.55;1.55;;;;;;;;;;5072973;28;20032;-73
2023/01/15 01:36:33;;;;;;;8.27;1.40;;;;;;;;;;5072340;28;20435;-73
2023/01/15 01:39:00;;;;;;;5.60;1.30;;;;;;;;;;5073118;28;20024;-72
2023/01/15 01:41:26;;;;;;;14.02;1.30;;;;;;;;;;5072818;28;20078;-71
2023/01/15 01:44:15;;;;;;;10.75;1.63;;;;;;;;;;5073125;28;20077;-73
2023/01/15 01:46:41;;;;;;;10.48;1.88;;;;;;;;;;5035748;28;20541;-73
2023/01/15 01:49:11;;;;;;;13.05;1.65;;;;;;;;;;5074621;28;20060;-73
2023/01/15 01:51:40;;;;;;;9.70;1.38;;;;;;;;;;5075957;28;20154;-72
2023/01/15 01:54:08;;;;;;;12.45;1.80;;;;;;;;;;5079892;28;20028;-72
2023/01/15 01:56:35;;;;;;;7.30;1.27;;;;;;;;;;5086256;28;20080;-73
2023/01/15 01:59:02;;;;;;;13.52;1.70;;;;;;;;;;5092279;28;20100;-73
2023/01/15 02:01:28;;;;;;;12.00;1.80;;;;;;;;;;5092394;28;20020;-72
2023/01/15 02:03:54;;;;;;;11.45;1.73;;;;;;;;;;5084160;28;20032;-73
2023/01/15 02:06:21;;;;;;;13.98;1.80;;;;;;;;;;5073601;28;20024;-73
2023/01/15 02:08:47;;;;;;;9.98;1.92;;;;;;;;;;5072046;28;20614;-73
2023/01/15 02:11:19;;;;;;;12.77;1.80;;;;;;;;;;5072157;28;20028;-72
2023/01/15 02:13:54;;;;;;;15.18;2.00;;;;;;;;;;5072149;28;20478;-72
2023/01/15 02:16:23;;;;;;;14.57;2.30;;;;;;;;;;5071622;28;20028;-72
2023/01/15 02:19:00;;;;;;;14.52;1.92;;;;;;;;;;5069906;28;20474;-71
2023/01/15 02:21:45;;;;;;;10.05;2.22;;;;;;;;;;5071941;28;20023;-71
2023/01/15 02:24:17;;;;;;;13.18;2.13;;;;;;;;;;5072198;28;20389;-73
2023/01/15 02:27:01;;;;;;;20.67;4.07;;;;;;;;;;5071458;28;20107;-72
2023/01/15 02:29:34;;;;;;;21.70;2.28;;;;;;;;;;5072005;28;20032;-72
2023/01/15 02:32:02;;;;;;;14.23;2.00;;;;;;;;;;5071968;28;20028;-72
2023/01/15 02:34:30;;;;;;;10.98;1.92;;;;;;;;;;5071830;28;20035;-73
2023/01/15 02:37:00;;;;;;;22.25;2.28;;;;;;;;;;5071273;28;20047;-72
2023/01/15 02:39:27;;;;;;;14.80;2.22;;;;;;;;;;5071957;28;20075;-71
2023/01/15 02:41:54;;;;;;;17.88;2.45;;;;;;;;;;5071936;28;20517;-72
2023/01/15 02:44:21;;;;;;;19.75;2.47;;;;;;;;;;5071908;28;20029;-72
2023/01/15 02:46:48;;;;;;;15.30;2.13;;;;;;;;;;5071225;28;20094;-72
2023/01/15 02:49:16;;;;;;;17.83;2.00;;;;;;;;;;5072030;28;20035;-72
2023/01/15 02:51:51;;;;;;;19.85;2.13;;;;;;;;;;5072251;28;20054;-72
2023/01/15 02:54:17;;;;;;;13.60;2.30;;;;;;;;;;5072393;28;20074;-72
2023/01/15 02:56:45;;;;;;;11.75;1.73;;;;;;;;;;5071193;28;20107;-72
2023/01/15 02:59:14;;;;;;;14.02;2.20;;;;;;;;;;5071877;28;20096;-72
2023/01/15 03:01:42;;;;;;;18.10;2.28;;;;;;;;;;5071678;28;20051;-72
2023/01/15 03:04:31;;;;;;;17.17;2.17;;;;;;;;;;5071648;28;20040;-73
2023/01/15 03:07:05;;;;;;;15.38;1.77;;;;;;;;;;5033591;28;20120;-73
2023/01/15 03:09:31;;;;;;;19.38;2.22;;;;;;;;;;5072128;28;20020;-72
2023/01/15 03:12:15;;;;;;;19.50;2.75;;;;;;;;;;5071523;28;20473;-72
2023/01/15 03:14:59;;;;;;;20.45;2.63;;;;;;;;;;5071667;28;20367;-72
2023/01/15 03:17:34;;;;;;;19.63;2.50;;;;;;;;;;5071247;28;20051;-72
2023/01/15 03:20:11;;;;;;;17.70;2.50;;;;;;;;;;5075376;28;20435;-73
2023/01/15 03:22:39;;;;;;;18.08;2.25;;;;;;;;;;5075574;28;20415;-72
2023/01/15 03:25:11;;;;;;;24.92;2.63;;;;;;;;;;5075404;28;20029;-72
2023/01/15 03:27:37;;;;;;;18.92;2.60;;;;;;;;;;5074990;28;20358;-72
2023/01/15 03:30:05;;;;;;;15.07;1.98;;;;;;;;;;5075336;28;20036;-72
2023/01/15 03:32:32;;;;;;;22.40;2.15;;;;;;;;;;5075020;28;20024;-73
2023/01/15 03:34:59;;;;;;;23.20;3.28;;;;;;;;;;5075174;28;20422;-72
2023/01/15 03:37:27;;;;;;;22.23;2.33;;;;;;;;;;5074667;28;20068;-73
2023/01/15 03:39:54;;;;;;;23.33;2.47;;;;;;;;;;5075190;28;20027;-72
2023/01/15 03:42:35;;;;;;;14.35;2.08;;;;;;;;;;5075093;28;20473;-72
2023/01/15 03:45:22;;;;;;;17.60;2.45;;;;;;;;;;5075193;28;20058;-72
2023/01/15 03:47:58;;;;;;;20.60;2.97;;;;;;;;;;5075395;28;20025;-76
2023/01/15 03:50:23;;;;;;;14.05;2.35;;;;;;;;;;5073004;28;20035;-74
2023/01/15 03:52:49;;;;;;;23.90;2.90;;;;;;;;;;5075168;28;20036;-73
2023/01/15 03:55:18;;;;;;;16.42;2.38;;;;;;;;;;5075372;28;20028;-72
2023/01/15 03:57:53;;;;;;;20.98;2.97;;;;;;;;;;5076536;28;20051;-72
2023/01/15 04:00:27;;;;;;;20.05;2.75;;;;;;;;;;5090776;28;20031;-73
2023/01/15 04:02:56;;;;;;;14.10;2.53;;;;;;;;;;5097944;28;20033;-73
2023/01/15 04:05:23;;;;;;;23.05;2.95;;;;;;;;;;5095277;28;20012;-72
2023/01/15 04:07:49;;;;;;;24.27;2.75;;;;;;;;;;5095859;28;20032;-72
2023/01/15 04:10:15;;;;;;;28.73;3.35;;;;;;;;;;5084789;28;20062;-75
2023/01/15 04:12:41;;;;;;;21.38;3.22;;;;;;;;;;5074511;28;20494;-74
2023/01/15 04:15:07;;;;;;;24.35;2.63;;;;;;;;;;5074690;28;20025;-74
2023/01/15 04:17:33;;;;;;;21.52;2.72;;;;;;;;;;5073941;28;20078;-72
2023/01/15 04:19:59;;;;;;;28.00;3.47;;;;;;;;;;5074510;28;20017;-73
2023/01/15 04:22:25;;;;;;;21.30;2.88;;;;;;;;;;5074141;28;20048;-73
2023/01/15 04:24:53;;;;;;;26.35;3.17;;;;;;;;;;5074180;28;20024;-75
2023/01/15 04:27:19;;;;;;;28.05;2.70;;;;;;;;;;5073501;28;20382;-72
2023/01/15 04:29:45;;;;;;;25.90;3.45;;;;;;;;;;5073493;28;20028;-72
2023/01/15 04:32:11;;;;;;;24.20;2.92;;;;;;;;;;5074071;28;20432;-72
2023/01/15 04:34:37;;;;;;;24.33;2.97;;;;;;;;;;5074338;28;20529;-72
2023/01/15 04:37:03;;;;;;;27.92;2.80;;;;;;;;;;5073574;28;20028;-73
2023/01/15 04:39:29;;;;;;;29.00;3.63;;;;;;;;;;5074114;28;20024;-73
2023/01/15 04:44:39;;;;;;;19.48;2.85;;;;;;;;;;5074200;28;20078;-72
2023/01/15 04:47:05;;;;;;;17.80;2.60;;;;;;;;;;5073211;28;20033;-72
2023/01/15 04:49:31;;;;;;;16.67;2.80;;;;;;;;;;5073925;28;20028;-72
2023/01/15 04:51:57;;;;;;;13.60;2.25;;;;;;;;;;5073844;28;20100;-72
2023/01/15 04:54:23;;;;;;;21.05;2.78;;;;;;;;;;5073683;28;20032;-72
2023/01/15 04:56:50;;;;;;;25.50;3.35;;;;;;;;;;5073055;28;20017;-72
2023/01/15 04:59:19;;;;;;;29.30;2.38;;;;;;;;;;5073647;28;20047;-71
2023/01/15 05:01:45;;;;;;;25.00;4.05;;;;;;;;;;5073555;28;20026;-72
2023/01/15 05:04:11;;;;;;;24.77;3.75;;;;;;;;;;5073786;28;20112;-73
2023/01/15 05:06:37;;;;;;;25.67;2.83;;;;;;;;;;5072991;28;20021;-74
2023/01/15 05:09:04;;;;;;;22.17;2.92;;;;;;;;;;5073493;28;20493;-74
2023/01/15 05:11:30;;;;;;;21.23;2.88;;;;;;;;;;5073215;28;20025;-74
2023/01/15 05:13:56;;;;;;;19.33;2.95;;;;;;;;;;5073250;28;20032;-73
2023/01/15 05:16:23;;;;;;;35.92;3.85;;;;;;;;;;5072599;28;20485;-73
2023/01/15 05:18:50;;;;;;;23.33;3.30;;;;;;;;;;5073336;28;20016;-73
2023/01/15 05:21:20;;;;;;;26.23;2.88;;;;;;;;;;5073196;28;20058;-72
2023/01/15 05:23:46;;;;;;;23.38;3.33;;;;;;;;;;5073157;28;20610;-72
2023/01/15 05:26:12;;;;;;;25.00;2.70;;;;;;;;;;5072506;28;20100;-73
2023/01/15 05:28:38;;;;;;;23.50;2.85;;;;;;;;;;5073081;28;20025;-72
2023/01/15 05:31:06;;;;;;;27.40;4.20;;;;;;;;;;5072937;28;20025;-72
2023/01/15 05:33:31;;;;;;;16.50;2.38;;;;;;;;;;5073123;28;20024;-77
2023/01/15 05:36:01;;;;;;;27.85;2.88;;;;;;;;;;5072373;28;20024;-76
2023/01/15 05:38:26;;;;;;;18.92;3.40;;;;;;;;;;5073123;28;20066;-72
2023/01/15 05:40:52;;;;;;;19.85;3.20;;;;;;;;;;5072785;28;20064;-72
2023/01/15 05:43:18;;;;;;;23.52;2.92;;;;;;;;;;5072731;28;20029;-73
2023/01/15 05:45:44;;;;;;;18.60;2.70;;;;;;;;;;5072107;28;20033;-74
2023/01/15 05:48:10;;;;;;;30.55;3.03;;;;;;;;;;5072869;28;20030;-75
2023/01/15 05:50:36;;;;;;;26.63;3.25;;;;;;;;;;5076486;28;20056;-76
2023/01/15 05:53:02;;;;;;;19.73;2.60;;;;;;;;;;5075701;28;20039;-76
2023/01/15 05:55:28;;;;;;;31.10;3.08;;;;;;;;;;5074394;28;20145;-76
2023/01/15 05:57:54;;;;;;;24.30;3.83;;;;;;;;;;5072066;28;20086;-76
2023/01/15 06:00:20;;;;;;;20.95;2.63;;;;;;;;;;5073777;28;20024;-76
2023/01/15 06:02:49;;;;;;;14.25;2.55;;;;;;;;;;5072314;28;20103;-75
2023/01/15 06:05:19;;;;;;;27.23;3.03;;;;;;;;;;5072637;28;20021;-74
2023/01/15 06:07:45;;;;;;;26.17;3.25;;;;;;;;;;5075090;28;20161;-75
2023/01/15 06:10:11;;;;;;;27.95;3.30;;;;;;;;;;5083354;28;20034;-77
2023/01/15 06:12:37;;;;;;;27.48;3.38;;;;;;;;;;5084899;28;20036;-77
2023/01/15 06:15:03;;;;;;;26.90;3.10;;;;;;;;;;5070545;28;20020;-73
2023/01/15 06:17:29;;;;;;;23.52;3.17;;;;;;;;;;5070659;28;20024;-75
2023/01/15 06:19:55;;;;;;;18.70;2.65;;;;;;;;;;5071040;28;20086;-73
2023/01/15 06:22:21;;;;;;;32.67;3.63;;;;;;;;;;5070801;28;20050;-73
2023/01/15 06:24:47;;;;;;;29.10;3.33;;;;;;;;;;5071524;28;20111;-72
2023/01/15 06:27:12;;;;;;;18.88;2.80;;;;;;;;;;5070655;28;20032;-72
2023/01/15 06:29:38;;;;;;;26.05;3.42;;;;;;;;;;5071001;28;20028;-71
2023/01/15 06:32:04;;;;;;;21.98;3.00;;;;;;;;;;5070954;28;20024;-73
2023/01/15 06:34:30;;;;;;;19.00;2.58;;;;;;;;;;5070676;28;20366;-71
2023/01/15 06:36:56;;;;;;;29.92;3.53;;;;;;;;;;5070203;28;20036;-73
2023/01/15 06:39:22;;;;;;;20.77;2.95;;;;;;;;;;5070275;28;20031;-71
2023/01/15 06:47:21;;;;;;;25.45;3.08;;;;;;;;;;5068284;28;20425;-73
2023/01/15 06:49:57;;;;;;;34.15;2.97;;;;;;;;;;5071669;28;20056;-72
2023/01/15 06:52:24;;;;;;;18.98;2.75;;;;;;;;;;5071241;28;20025;-71
2023/01/15 06:54:50;;;;;;;26.85;3.10;;;;;;;;;;5071003;28;20146;-73
2023/01/15 06:57:17;;;;;;;20.45;3.22;;;;;;;;;;5070880;28;20096;-75
2023/01/15 06:59:43;;;;;;;26.88;2.90;;;;;;;;;;5071503;28;20088;-73
2023/01/15 07:02:10;;;;;;;27.13;3.58;;;;;;;;;;5071287;28;20028;-73
2023/01/15 07:04:36;;;;;;;27.70;3.17;;;;;;;;;;5071430;28;20600;-72
2023/01/15 07:07:02;;;;;;;29.27;3.00;;;;;;;;;;5071267;28;20092;-72
2023/01/15 07:09:28;;;;;;;31.52;3.53;;;;;;;;;;5071307;28;20035;-73
2023/01/15 07:11:54;;;;;;;30.38;5.25;;;;;;;;;;5071211;28;20104;-73
2023/01/15 07:14:22;;;;;;;22.85;3.17;;;;;;;;;;5071594;28;20562;-74
2023/01/15 07:16:48;;;;;;;21.40;3.22;;;;;;;;;;5070965;28;20031;-73
2023/01/15 07:19:14;;;;;;;22.33;3.17;;;;;;;;;;5071868;28;20016;-72
2023/01/15 07:21:40;;;;;;;23.58;3.35;;;;;;;;;;5053672;28;20028;-72
2023/01/15 07:24:06;;;;;;;25.75;3.33;;;;;;;;;;5071321;28;20033;-71
2023/01/15 07:26:33;;;;;;;25.48;3.15;;;;;;;;;;5070858;28;20105;-71
2023/01/15 07:28:58;;;;;;;23.10;3.63;;;;;;;;;;5071324;28;20086;-72
2023/01/15 07:31:24;;;;;;;26.80;3.88;;;;;;;;;;5071462;28;20436;-72
2023/01/15 07:33:50;;;;;;;19.45;3.30;;;;;;;;;;5071521;28;20029;-73
2023/01/15 07:36:16;;;;;;;29.15;3.35;;;;;;;;;;5070956;28;20028;-74
2023/01/15 07:38:42;;;;;;;28.10;3.42;;;;;;;;;;5071559;28;20100;-73
2023/01/15 07:52:07;;;;;;;25.13;3.03;;;;;;;;;;5071136;28;20031;-71
2023/01/15 07:54:33;;;;;;;21.85;3.40;;;;;;;;;;5070997;28;20449;-72
2023/01/15 07:56:58;;;;;;;20.23;3.25;;;;;;;;;;5070442;28;20047;-72
2023/01/15 07:59:24;;;;;;;21.58;3.55;;;;;;;;;;5071273;28;20025;-73
2023/01/15 08:01:50;;;;;;;16.27;2.92;;;;;;;;;;5071452;28;20029;-73
2023/01/15 08:04:17;;;;;;;23.08;3.15;;;;;;;;;;5071989;28;20033;-73
2023/01/15 08:06:42;;;;;;;27.25;2.92;;;;;;;;;;5070980;28;20103;-73
2023/01/15 08:09:08;;;;;;;30.77;4.10;;;;;;;;;;5074926;28;20075;-72
2023/01/15 08:17:03;;;;;;;21.85;3.42;;;;;;;;;;5074137;28;20032;-72
2023/01/15 08:19:29;;;;;;;23.13;3.22;;;;;;;;;;5075033;28;20021;-73
2023/01/15 08:21:56;;;;;;;26.20;3.22;;;;;;;;;;5056721;28;20027;-74
2023/01/15 08:24:22;;;;;;;18.52;3.08;;;;;;;;;;5074791;28;20481;-73
2023/01/15 08:26:48;;;;;;;19.08;2.90;;;;;;;;;;5073658;28;20024;-72
2023/01/15 08:29:14;;;;;;;26.95;3.05;;;;;;;;;;5074303;28;20556;-72
2023/01/15 08:31:40;;;;;;;17.83;2.83;;;;;;;;;;5074033;28;20060;-72
2023/01/15 08:34:07;;;;;;;18.45;2.53;;;;;;;;;;5074438;28;20032;-74
2023/01/15 08:36:33;;;;;;;19.42;2.90;;;;;;;;;;5074060;28;20024;-74
2023/01/15 08:38:59;;;;;;;25.13;3.35;;;;;;;;;;5075504;28;20338;-76
2023/01/15 08:41:25;;;;;;;22.13;3.50;;;;;;;;;;5076551;28;20024;-77
2023/01/15 08:43:51;;;;;;;20.42;3.00;;;;;;;;;;5076370;28;20029;-73
2023/01/15 08:46:17;;;;;;;22.23;3.28;;;;;;;;;;5078866;28;20062;-76
2023/01/15 08:48:43;;;;;;;25.33;3.03;;;;;;;;;;5060329;28;20016;-73
2023/01/15 08:51:10;;;;;;;21.38;3.13;;;;;;;;;;5075732;28;20057;-72
2023/01/15 08:53:36;;;;;;;27.52;3.78;;;;;;;;;;5074168;28;20029;-74
2023/01/15 08:56:02;;;;;;;29.90;3.50;;;;;;;;;;5076590;28;20020;-76
2023/01/15 08:58:28;;;;;;;17.85;3.00;;;;;;;;;;5076915;28;20021;-74
2023/01/15 09:00:54;;;;;;;20.25;3.10;;;;;;;;;;5076180;28;20090;-74
2023/01/15 09:03:20;;;;;;;17.83;3.08;;;;;;;;;;5075710;28;20481;-73
2023/01/15 09:05:46;;;;;;;16.73;2.60;;;;;;;;;;5073202;28;20052;-74
2023/01/15 09:08:12;;;;;;;22.48;2.60;;;;;;;;;;5074392;28;20085;-76
2023/01/15 09:10:38;;;;;;;22.60;3.22;;;;;;;;;;5074145;28;20124;-76
2023/01/15 09:13:04;;;;;;;21.95;3.10;;;;;;;;;;5074093;28;20052;-77
2023/01/15 09:15:31;;;;;;;20.67;3.15;;;;;;;;;;5074628;28;20025;-74
2023/01/15 09:17:57;;;;;;;23.33;3.22;;;;;;;;;;5077574;28;20111;-74
2023/01/15 09:20:24;;;;;;;17.58;2.95;;;;;;;;;;5078660;28;20092;-73
2023/01/15 09:22:50;;;;;;;26.17;4.00;;;;;;;;;;5080212;28;20037;-77
2023/01/15 09:25:18;;;;;;;26.88;3.15;;;;;;;;;;5079726;28;20054;-74
2023/01/15 09:27:44;;;;;;;17.38;2.85;;;;;;;;;;5073370;28;20040;-74
2023/01/15 09:30:13;;;;;;;24.63;3.60;;;;;;;;;;5073473;28;20386;-74
2023/01/15 09:32:39;;;;;;;17.75;2.67;;;;;;;;;;5074477;28;20496;-73
2023/01/15 09:35:06;;;;;;;16.63;2.53;;;;;;;;;;5075539;28;20029;-74
2023/01/15 09:37:32;;;;;;;16.52;2.90;;;;;;;;;;5073609;28;20036;-72
2023/01/15 09:39:57;;;;;;;16.45;3.22;;;;;;;;;;5073855;28;20024;-73
2023/01/15 09:42:26;;;;;;;15.43;3.10;;;;;;;;;;5073158;28;20033;-73
2023/01/15 09:45:01;;;;;;;18.27;3.10;;;;;;;;;;5072817;28;20458;-74
2023/01/15 09:47:32;;;;;;;23.08;3.30;;;;;;;;;;5072607;28;20025;-73
2023/01/15 09:50:14;;;;;;;16.08;2.15;;;;;;;;;;5072894;28;20036;-72
2023/01/15 09:52:54;;;;;;;26.30;3.13;;;;;;;;;;5072973;28;20132;-74
2023/01/15 09:55:22;;;;;;;26.05;2.70;;;;;;;;;;5072374;28;20025;-73
2023/01/15 09:57:53;;;;;;;11.75;2.15;;;;;;;;;;5072670;28;20103;-73
2023/01/15 10:00:22;;;;;;;15.80;2.70;;;;;;;;;;5072468;28;20114;-73
2023/01/15 10:02:54;;;;;;;14.10;2.10;;;;;;;;;;5072451;28;20044;-72
2023/01/15 10:05:25;;;;;;;17.05;2.53;;;;;;;;;;5073009;28;20032;-73
2023/01/15 10:07:54;;;;;;;19.20;2.22;;;;;;;;;;5072066;28;20024;-72
2023/01/15 10:10:22;;;;;;;15.07;3.00;;;;;;;;;;5072549;28;20052;-73
2023/01/15 10:12:49;;;;;;;14.57;2.22;;;;;;;;;;5072218;28;20100;-75
2023/01/15 10:15:32;;;;;;;14.88;2.63;;;;;;;;;;5072300;28;20016;-75
2023/01/15 10:17:58;;;;;;;17.48;2.92;;;;;;;;;;5072319;28;20021;-74
2023/01/15 10:20:33;;;;;;;18.02;2.35;;;;;;;;;;5072396;28;20024;-75
2023/01/15 10:22:59;;;;;;;19.30;2.50;;;;;;;;;;5073178;28;20036;-74
2023/01/15 10:25:27;;;;;;;18.10;2.50;;;;;;;;;;5072305;28;20029;-73
2023/01/15 10:27:55;;;;;;;12.68;2.17;;;;;;;;;;5071802;28;20452;-74
2023/01/15 10:30:39;;;;;;;16.35;2.28;;;;;;;;;;5072199;28;20075;-75
2023/01/15 10:33:18;;;;;;;17.58;2.28;;;;;;;;;;5072201;28;20036;-73
2023/01/15 10:35:44;;;;;;;22.90;2.80;;;;;;;;;;5071357;28;20024;-74
2023/01/15 10:38:16;;;;;;;19.15;2.45;;;;;;;;;;5071995;28;20028;-75
2023/01/15 10:41:02;;;;;;;17.70;2.53;;;;;;;;;;5072094;28;20076;-76
2023/01/15 10:43:47;;;;;;;14.35;2.60;;;;;;;;;;5072445;28;20541;-73
2023/01/15 10:46:14;;;;;;;14.98;2.33;;;;;;;;;;5071354;28;20037;-74
2023/01/15 10:48:57;;;;;;;16.27;2.70;;;;;;;;;;5072016;28;20032;-73
2023/01/15 10:51:26;;;;;;;19.15;2.70;;;;;;;;;;5071768;28;20078;-74
2023/01/15 10:54:00;;;;;;;20.67;2.55;;;;;;;;;;5071656;28;20056;-74
2023/01/15 10:56:25;;;;;;;18.67;2.67;;;;;;;;;;5071166;28;20499;-74
2023/01/15 10:58:54;;;;;;;11.57;2.47;;;;;;;;;;5071686;28;20025;-74
2023/01/15 11:01:23;;;;;;;11.13;2.58;;;;;;;;;;5071561;28;20024;-73
2023/01/15 11:03:49;;;;;;;18.80;2.00;;;;;;;;;;5071762;28;20470;-73
2023/01/15 11:06:20;;;;;;;19.25;2.55;;;;;;;;;;5071159;28;20527;-73
2023/01/15 11:08:49;;;;;;;16.83;2.33;;;;;;;;;;5072138;28;20028;-74
2023/01/15 11:19:58;;;;;;;20.48;2.33;;;;;;;;;;5071281;28;20036;-75
2023/01/15 11:22:27;;;;;;;12.10;2.00;;;;;;;;;;5071397;28;20032;-75
2023/01/15 11:24:54;;;;;;;13.77;2.00;;;;;;;;;;5073097;28;20016;-75
2023/01/15 11:27:24;;;;;;;14.10;2.65;;;;;;;;;;5075128;28;20513;-74
2023/01/15 11:29:51;;;;;;;19.90;2.65;;;;;;;;;;5079841;28;20036;-74
2023/01/15 11:32:19;;;;;;;17.65;3.15;;;;;;;;;;5071522;28;20405;-72
2023/01/15 11:34:52;;;;;;;12.85;2.15;;;;;;;;;;5070472;28;20036;-75
2023/01/15 11:37:18;;;;;;;15.43;2.73;;;;;;;;;;5070238;28;20016;-75
2023/01/15 11:39:52;;;;;;;17.65;2.30;;;;;;;;;;5071888;28;20450;-75
2023/01/15 11:50:42;;;;;;;9.13;1.77;;;;;;;;;;5074559;28;20039;-75
2023/01/15 11:53:13;;;;;;;10.73;1.45;;;;;;;;;;5074353;28;20078;-73
2023/01/15 11:55:39;;;;;;;8.93;1.45;;;;;;;;;;5073651;28;20044;-75
2023/01/15 11:58:09;;;;;;;11.25;1.40;;;;;;;;;;5073818;28;20060;-74
2023/01/15 12:00:39;;;;;;;8.18;1.00;;;;;;;;;;5073819;28;20044;-74
2023/01/15 12:03:12;;;;;;;7.88;1.30;;;;;;;;;;5074013;28;20493;-77
2023/01/15 12:05:45;;;;;;;6.43;1.25;;;;;;;;;;5072943;28;20036;-76
2023/01/15 12:08:21;;;;;;;6.70;1.20;;;;;;;;;;5074107;28;20024;-72
2023/01/15 12:11:03;;;;;;;3.60;0.98;;;;;;;;;;5073645;28;20036;-75
2023/01/15 12:13:56;;;;;;;6.30;1.17;;;;;;;;;;5073731;28;20104;-74
2023/01/15 12:16:27;;;;;;;8.75;1.35;;;;;;;;;;5049682;28;20382;-74
2023/01/15 12:19:18;;;;;;;3.72;0.90;;;;;;;;;;5076045;28;20104;-73
2023/01/15 12:21:44;;;;;;;5.97;1.05;;;;;;;;;;5079314;28;20108;-72
2023/01/15 12:24:10;;;;;;;5.55;1.05;;;;;;;;;;5076492;28;20082;-74
2023/01/15 12:26:39;;;;;;;5.97;1.48;;;;;;;;;;5075622;28;20032;-75
2023/01/15 12:29:05;;;;;;;5.78;1.23;;;;;;;;;;5077639;28;20024;-74
2023/01/15 12:31:43;;;;;;;3.88;0.82;;;;;;;;;;5075914;28;20082;-74
2023/01/15 12:34:16;;;;;;;3.45;1.00;;;;;;;;;;5075683;28;20466;-73
2023/01/15 12:36:45;;;;;;;5.43;1.15;;;;;;;;;;5073811;28;20056;-75
2023/01/15 12:39:30;;;;;;;6.78;1.10;;;;;;;;;;5075687;28;20016;-76
2023/01/15 12:45:04;;;;;;;8.25;1.50;;;;;;;;;;5074358;28;20040;-73
2023/01/15 12:47:36;;;;;;;10.60;1.45;;;;;;;;;;5073857;28;20112;-73
2023/01/15 12:50:21;;;;;;;6.30;1.05;;;;;;;;;;5054936;28;20438;-73
2023/01/15 12:52:49;;;;;;;18.52;3.90;;;;;;;;;;5072983;28;20406;-73
2023/01/15 12:55:18;;;;;;;17.95;6.50;;;;;;;;;;5073259;28;20043;-73
2023/01/15 12:57:50;;;;;;;22.27;5.38;;;;;;;;;;5073310;28;20033;-74
2023/01/15 13:00:22;;;;;;;9.02;2.00;;;;;;;;;;5075409;28;20107;-74
2023/01/15 13:02:57;;;;;;;11.15;1.67;;;;;;;;;;5075395;28;20040;-72
2023/01/15 13:05:31;;;;;;;8.88;1.88;;;;;;;;;;5072652;28;20054;-73
2023/01/15 13:07:57;;;;;;;9.15;2.72;;;;;;;;;;5073630;28;20028;-72
2023/01/15 13:10:25;;;;;;;16.27;2.50;;;;;;;;;;5073730;28;20389;-74
2023/01/15 13:12:53;;;;;;;11.73;2.40;;;;;;;;;;5073509;28;20032;-73
2023/01/15 13:15:20;;;;;;;12.05;2.17;;;;;;;;;;5073316;28;20029;-73
2023/01/15 13:17:58;;;;;;;16.83;2.67;;;;;;;;;;5072966;28;20025;-73
2023/01/15 13:20:30;;;;;;;15.23;2.78;;;;;;;;;;5073204;28;20104;-72
2023/01/15 13:23:08;;;;;;;14.75;2.67;;;;;;;;;;5073368;28;20025;-75
2023/01/15 13:25:41;;;;;;;12.57;2.38;;;;;;;;;;5072687;28;20047;-74
2023/01/15 13:28:12;;;;;;;20.13;2.83;;;;;;;;;;5073314;28;20028;-75
2023/01/15 13:30:38;;;;;;;14.23;3.53;;;;;;;;;;5073057;28;20360;-73
2023/01/15 13:33:13;;;;;;;13.70;2.75;;;;;;;;;;5073111;28;20016;-74
2023/01/15 13:35:46;;;;;;;14.75;2.38;;;;;;;;;;5072217;28;20032;-74
2023/01/15 13:38:16;;;;;;;19.55;3.08;;;;;;;;;;5072853;28;20378;-73
2023/01/15 13:40:50;;;;;;;16.38;2.50;;;;;;;;;;5072952;28;20552;-73
2023/01/15 13:43:29;;;;;;;13.32;2.72;;;;;;;;;;5073294;28;20402;-74
2023/01/15 13:45:56;;;;;;;13.02;3.00;;;;;;;;;;5072262;28;20040;-73
2023/01/15 13:48:31;;;;;;;17.00;2.10;;;;;;;;;;5072771;28;20028;-75
2023/01/15 13:50:57;;;;;;;;;;;;;;;;;;5073235;28;20033;-72
2023/01/15 13:53:23;;;;;;;20.48;4.55;;;;;;;;;;5072625;28;19915;-72
2023/01/15 13:55:56;;;;;;;14.85;2.22;;;;;;;;;;5072177;28;20031;-72
2023/01/15 13:58:24;;;;;;;17.15;2.22;;;;;;;;;;5075385;28;20020;-72
2023/01/15 14:01:00;;;;;;;14.93;2.10;;;;;;;;;;5073363;28;20024;-72
2023/01/15 14:03:29;;;;;;;15.07;2.70;;;;;;;;;;5071626;28;20022;-73
2023/01/15 14:05:56;;;;;;;11.68;1.90;;;;;;;;;;5072415;28;20020;-75
2023/01/15 14:08:26;;;;;;;16.75;2.60;;;10.60;99.90;;;;;;5072826;28;20040;-74
2023/01/15 14:10:54;;;;;;;18.40;3.10;;;8.50;1.00;;;;;;5073419;28;20028;-73
2023/01/15 14:13:22;;;;;;;9.00;1.92;;;8.40;1.00;;;;;;5070814;28;20027;-76
2023/01/15 14:16:09;;;;;;;18.25;2.78;;;8.40;1.00;;;;;;5073241;28;20031;-74
2023/01/15 14:19:12;;;;;;;18.98;2.63;;;8.40;1.00;;;;;;5073270;28;20078;-74
2023/01/15 14:22:13;;;;;;;19.02;2.47;;;8.40;1.00;;;;;;5072341;28;20036;-74
2023/01/15 14:24:44;;;;;;;21.02;2.58;;;8.30;1.00;;;;;;5072351;28;20035;-74
2023/01/15 14:27:35;;;;;;;27.40;4.03;;;8.40;1.00;;;;;;5071112;28;20039;-74
2023/01/15 14:30:31;;;;;;;17.98;2.85;;;8.40;1.00;;;;;;5071729;28;20029;-73
2023/01/15 14:32:59;;;;;;;18.25;2.42;;;8.30;1.00;;;;;;5031793;28;20036;-77
2023/01/15 14:35:27;;;;;;;13.70;2.47;;;8.30;1.00;;;;;;5075254;28;20017;-76
2023/01/15 14:38:02;;;;;;;13.82;2.42;;;8.30;1.00;;;;;;5073722;28;20028;-74
2023/01/15 14:40:31;;;;;;;14.88;2.95;;;8.30;1.00;;;;;;5076625;28;20024;-76
2023/01/15 14:43:01;;;;;;;14.90;2.80;;;8.30;1.00;;;;;;5074040;28;20024;-74
2023/01/15 14:45:35;;;;;;;17.38;2.92;;;8.30;1.00;;;;;;5070944;28;20482;-74
2023/01/15 14:48:03;;;;;;;17.27;2.73;;;8.30;1.00;;;;;;5071956;28;20020;-77
2023/01/15 14:50:40;;;;;;;14.55;2.70;;;8.30;1.00;;;;;;5071780;28;20124;-73
2023/01/15 14:53:12;;;;;;;17.73;2.50;;;8.30;1.00;;;;;;5071910;28;20026;-72
2023/01/15 14:55:41;;;;;;;14.40;2.83;;;;;;;;;;5070871;28;20024;-73
2023/01/15 14:58:30;;;;;;;16.27;3.00;;;8.30;2.40;;;;;;5072459;28;20099;-74
2023/01/15 15:01:01;;;;;;;14.13;2.10;;;8.30;6.50;;;;;;5070260;28;20488;-73
2023/01/15 15:03:37;;;;;;;18.17;2.70;;;8.30;13.40;;;;;;5072192;28;20078;-74
2023/01/15 15:06:05;;;;;;;20.45;3.08;;;8.20;22.70;;;;;;5070372;28;20031;-73
2023/01/15 15:08:33;;;;;;;18.95;2.65;;;8.20;40.40;;;;;;5071378;28;20029;-72
2023/01/15 15:12:17;;;;;;;19.80;3.30;;;8.10;50.50;;;;;;5071515;28;20096;-73
2023/01/15 15:13:50;;;;;;;19.35;3.42;;;8.00;63.60;;;;;;5071294;28;20033;-72
2023/01/15 15:16:26;;;;;;;22.20;3.65;;;7.80;85.70;;;;;;5074544;28;20102;-73
2023/01/15 15:19:11;;;;;;;12.15;2.30;;;7.50;94.00;;;;;;5075478;28;20036;-73
2023/01/15 15:21:42;;;;;;;15.27;2.72;;;7.30;97.10;;;;;;5075682;28;20021;-74
2023/01/15 15:24:34;;;;;;;21.42;3.53;;;7.20;98.70;;;;;;5075841;28;20193;-73